Time;durP1;ratioP1;P1;durP2;ratioP2;P2;SDS_P1;SDS_P2;PMS_P1;PMS_P2;Temp;Humidity;BMP_temperature;BMP_pressure;BME280_temperature;BME280_humidity;BME280_pressure;Samples;Min_cycle;Max_cycle;Signal;HPM_P1;HPM_P2
2022/07/30 00:00:10;;;;;;;;;;;25.30;48.50;;;;;;5018120;28;19962;-72
2022/07/30 00:02:36;;;;;;;;;;;25.30;48.60;;;;;;5016618;28;20337;-69
2022/07/30 00:05:03;;;;;;;;;;;25.30;48.70;;;;;;5038212;28;19928;-72
2022/07/30 00:07:31;;;;;;;;;;;25.20;48.90;;;;;;5020982;28;20044;-69
2022/07/30 00:09:58;;;;;;;;;;;25.20;49.00;;;;;;5038751;28;19929;-70
2022/07/30 00:12:24;;;;;;;;;;;25.10;49.00;;;;;;5034684;28;20323;-69
2022/07/30 00:14:51;;;;;;;;;;;25.10;49.10;;;;;;5025745;28;19925;-69
2022/07/30 00:17:17;;;;;;;;;;;25.10;49.30;;;;;;5018175;28;19933;-71
2022/07/30 00:19:44;;;;;;;;;;;25.00;49.40;;;;;;5023755;28;20001;-70
2022/07/30 00:22:10;;;;;;;;;;;25.00;49.70;;;;;;5037452;28;19924;-69
2022/07/30 00:24:38;;;;;;;;;;;25.00;49.90;;;;;;5031204;28;19929;-69
2022/07/30 00:27:05;;;;;;;;;;;24.90;49.80;;;;;;5033490;28;19929;-69
2022/07/30 00:29:31;;;;;;;;;;;24.90;50.10;;;;;;5009079;28;19937;-68
2022/07/30 00:31:58;;;;;;;;;;;24.90;50.10;;;;;;5023308;28;19925;-69
2022/07/30 00:34:24;;;;;;;;;;;24.80;50.20;;;;;;5044195;28;19925;-69
2022/07/30 00:36:51;;;;;;;;;;;24.80;50.50;;;;;;5019828;28;19925;-70
2022/07/30 00:39:18;;;;;;;;;;;24.80;50.60;;;;;;5032251;28;20331;-70
2022/07/30 00:41:56;;;;;;;;;;;24.70;50.50;;;;;;5030303;28;20408;-69
2022/07/30 00:44:22;;;;;;;;;;;24.70;50.60;;;;;;5010630;28;19925;-70
2022/07/30 00:46:49;;;;;;;;;;;24.70;50.80;;;;;;5031230;28;19929;-70
2022/07/30 00:49:16;;;;;;;;;;;24.70;50.90;;;;;;5035438;28;20336;-70
2022/07/30 00:51:42;;;;;;;;;;;24.60;51.00;;;;;;5021232;28;20027;-71
2022/07/30 00:54:09;;;;;;;;;;;24.60;51.00;;;;;;5031668;28;19951;-70
2022/07/30 00:56:35;;;;;;;;;;;24.50;51.10;;;;;;5032631;28;19972;-70
2022/07/30 00:59:04;;;;;;;;;;;24.50;51.30;;;;;;5020279;28;19935;-69
2022/07/30 01:01:31;;;;;;;;;;;24.50;51.50;;;;;;5021956;28;20328;-71
2022/07/30 01:03:58;;;;;;;;;;;24.40;51.50;;;;;;5039698;28;19925;-70
2022/07/30 01:06:24;;;;;;;;;;;24.40;51.50;;;;;;5022521;28;20425;-69
2022/07/30 01:08:51;;;;;;;;;;;24.40;51.70;;;;;;5022636;28;19961;-72
2022/07/30 01:11:18;;;;;;;;;;;24.30;51.80;;;;;;5036076;28;19925;-70
2022/07/30 01:13:45;;;;;;;;;;;24.30;51.80;;;;;;5025309;28;19926;-69
2022/07/30 01:16:13;;;;;;;;;;;24.30;52.00;;;;;;5016886;28;19926;-71
2022/07/30 01:21:25;;;;;;;;;;;24.20;52.20;;;;;;5032069;28;19920;-70
2022/07/30 01:23:53;;;;;;;;;;;24.20;52.20;;;;;;5031326;28;19932;-71
2022/07/30 01:26:21;;;;;;;;;;;24.10;52.30;;;;;;5034258;28;19925;-70
2022/07/30 01:28:50;;;;;;;;;;;24.10;52.40;;;;;;5022729;28;19932;-69
2022/07/30 01:31:17;;;;;;;;;;;24.00;52.50;;;;;;5013141;28;19932;-71
2022/07/30 01:33:44;;;;;;;;;;;24.00;52.50;;;;;;5037469;28;19929;-68
2022/07/30 01:36:13;;;;;;;;;;;24.00;52.60;;;;;;5035195;28;19925;-68
2022/07/30 01:38:40;;;;;;;;;;;24.00;52.80;;;;;;5035849;28;19933;-72
2022/07/30 01:41:07;;;;;;;;;;;23.90;52.70;;;;;;5044247;28;20389;-69
2022/07/30 01:43:35;;;;;;;;;;;23.90;52.80;;;;;;5023464;28;19932;-69
2022/07/30 01:46:02;;;;;;;;;;;23.80;52.90;;;;;;5023563;28;19925;-69
2022/07/30 01:48:30;;;;;;;;;;;23.80;52.90;;;;;;5028001;28;19925;-70
2022/07/30 01:51:00;;;;;;;;;;;23.80;53.00;;;;;;5033210;28;19934;-69
2022/07/30 01:53:29;;;;;;;;;;;23.80;53.10;;;;;;5026512;28;20395;-71
2022/07/30 01:55:57;;;;;;;;;;;23.70;53.10;;;;;;5037426;28;19932;-70
2022/07/30 01:58:26;;;;;;;;;;;23.70;53.10;;;;;;5019751;28;19929;-71
2022/07/30 02:00:55;;;;;;;;;;;23.60;53.30;;;;;;5020779;28;19929;-70
2022/07/30 02:03:22;;;;;;;;;;;23.60;53.50;;;;;;5044215;28;20396;-70
2022/07/30 02:05:52;;;;;;;;;;;23.60;53.50;;;;;;5030375;28;19933;-69
2022/07/30 02:08:22;;;;;;;;;;;23.50;53.60;;;;;;5028305;28;19928;-71
2022/07/30 02:10:50;;;;;;;;;;;23.50;53.70;;;;;;5025978;28;20385;-68
2022/07/30 02:13:20;;;;;;;;;;;23.50;53.70;;;;;;5031220;28;20397;-68
2022/07/30 02:15:49;;;;;;;;;;;23.40;53.80;;;;;;5024132;28;19930;-69
2022/07/30 02:18:20;;;;;;;;;;;23.40;53.80;;;;;;5017064;28;19926;-69
2022/07/30 02:20:48;;;;;;;;;;;23.40;54.00;;;;;;5043108;28;20447;-69
2022/07/30 02:23:16;;;;;;;;;;;23.30;53.90;;;;;;5033256;28;19932;-69
2022/07/30 02:25:44;;;;;;;;;;;23.30;54.00;;;;;;5041626;28;19929;-68
2022/07/30 02:28:12;;;;;;;;;;;23.30;53.90;;;;;;5016471;28;19968;-70
2022/07/30 02:30:41;;;;;;;;;;;23.30;54.00;;;;;;5018448;28;19933;-70
2022/07/30 02:33:09;;;;;;;;;;;23.20;54.10;;;;;;5030346;28;19936;-69
2022/07/30 02:35:37;;;;;;;;;;;23.20;54.00;;;;;;5036772;28;19920;-69
2022/07/30 02:38:05;;;;;;;;;;;23.20;53.80;;;;;;5039855;28;19924;-69
2022/07/30 02:40:32;;;;;;;;;;;23.20;53.90;;;;;;5044448;28;20426;-69
2022/07/30 02:42:59;;;;;;;;;;;23.10;54.00;;;;;;5022378;28;19920;-69
2022/07/30 02:45:26;;;;;;;;;;;23.10;53.80;;;;;;5022894;28;19944;-72
2022/07/30 02:47:55;;;;;;;;;;;23.10;53.90;;;;;;5035825;28;19928;-71
2022/07/30 02:50:23;;;;;;;;;;;23.00;54.00;;;;;;5031396;28;19933;-69
2022/07/30 02:52:51;;;;;;;;;;;23.00;54.10;;;;;;5022700;28;19929;-66
2022/07/30 02:55:18;;;;;;;;;;;23.00;54.10;;;;;;5043382;28;20396;-69
2022/07/30 02:57:46;;;;;;;;;;;23.00;54.20;;;;;;5028975;28;19944;-69
2022/07/30 03:00:13;;;;;;;;;;;22.90;54.30;;;;;;5016775;28;19929;-68
2022/07/30 03:02:40;;;;;;;;;;;22.90;54.30;;;;;;5030445;28;19932;-70
2022/07/30 03:05:07;;;;;;;;;;;22.90;54.20;;;;;;5042356;28;19925;-69
2022/07/30 03:07:35;;;;;;;;;;;22.80;54.30;;;;;;5028972;28;19925;-72
2022/07/30 03:10:04;;;;;;;;;;;22.80;54.30;;;;;;5037430;28;20351;-69
2022/07/30 03:12:31;;;;;;;;;;;22.80;54.40;;;;;;5038711;28;19936;-69
2022/07/30 03:14:58;;;;;;;;;;;22.80;54.40;;;;;;5026227;28;20309;-69
2022/07/30 03:17:26;;;;;;;;;;;22.70;54.30;;;;;;5018011;28;19932;-69
2022/07/30 03:19:54;;;;;;;;;;;22.70;54.30;;;;;;5020709;28;19933;-69
2022/07/30 03:22:22;;;;;;;;;;;22.70;54.30;;;;;;5037236;28;19940;-71
2022/07/30 03:24:49;;;;;;;;;;;22.70;54.20;;;;;;5024643;28;19925;-69
2022/07/30 03:27:18;;;;;;;;;;;22.70;54.30;;;;;;5025884;28;19926;-71
2022/07/30 03:29:45;;;;;;;;;;;22.60;54.20;;;;;;5022425;28;20456;-69
2022/07/30 03:32:12;;;;;;;;;;;22.60;54.20;;;;;;5018495;28;20661;-70
2022/07/30 03:34:38;;;;;;;;;;;22.60;54.30;;;;;;5033243;28;19925;-69
2022/07/30 03:37:05;;;;;;;;;;;22.60;54.30;;;;;;5038018;28;19929;-69
2022/07/30 03:39:33;;;;;;;;;;;22.60;54.30;;;;;;5031859;28;19931;-69
2022/07/30 03:41:59;;;;;;;;;;;22.50;54.10;;;;;;5032311;28;19933;-70
2022/07/30 03:44:28;;;;;;;;;;;22.50;54.30;;;;;;5018643;28;19942;-69
2022/07/30 03:46:55;;;;;;;;;;;22.50;54.40;;;;;;5018848;28;19933;-71
2022/07/30 03:49:22;;;;;;;;;;;22.50;54.40;;;;;;5036840;28;19929;-70
2022/07/30 03:51:49;;;;;;;;;;;22.50;54.50;;;;;;5027002;28;19925;-69
2022/07/30 03:54:16;;;;;;;;;;;22.50;54.40;;;;;;5030639;28;19931;-69
2022/07/30 03:56:43;;;;;;;;;;;22.40;54.40;;;;;;5026217;28;20532;-68
2022/07/30 03:59:10;;;;;;;;;;;22.40;54.50;;;;;;5017287;28;19933;-70
2022/07/30 04:01:38;;;;;;;;;;;22.40;54.60;;;;;;5020507;28;20373;-69
2022/07/30 04:04:05;;;;;;;;;;;22.40;54.70;;;;;;5034351;28;19929;-69
2022/07/30 04:06:32;;;;;;;;;;;22.30;54.80;;;;;;5031987;28;20341;-70
2022/07/30 04:08:58;;;;;;;;;;;22.30;54.90;;;;;;5020857;28;20040;-69
2022/07/30 04:11:25;;;;;;;;;;;22.20;54.90;;;;;;5041305;28;19964;-69
2022/07/30 04:13:52;;;;;;;;;;;22.20;55.00;;;;;;5028231;28;19929;-70
2022/07/30 04:16:20;;;;;;;;;;;22.20;55.00;;;;;;5018277;28;20262;-71
2022/07/30 04:18:50;;;;;;;;;;;22.20;55.00;;;;;;5019793;28;20485;-68
2022/07/30 04:21:18;;;;;;;;;;;22.20;55.20;;;;;;5037695;28;19921;-69
2022/07/30 04:23:45;;;;;;;;;;;22.20;55.30;;;;;;5032036;28;19977;-69
2022/07/30 04:26:12;;;;;;;;;;;22.10;55.30;;;;;;5033369;28;19932;-70
2022/07/30 04:28:39;;;;;;;;;;;22.10;55.40;;;;;;5020447;28;20397;-70
2022/07/30 04:31:05;;;;;;;;;;;22.10;55.50;;;;;;5018539;28;20377;-70
2022/07/30 04:33:32;;;;;;;;;;;22.10;55.50;;;;;;5028508;28;19933;-69
2022/07/30 04:36:05;;;;;;;;;;;22.10;55.40;;;;;;5033396;28;20672;-69
2022/07/30 04:38:32;;;;;;;;;;;22.00;55.60;;;;;;5038861;28;19929;-71
2022/07/30 04:40:58;;;;;;;;;;;22.00;55.70;;;;;;5025682;28;19933;-69
2022/07/30 04:43:25;;;;;;;;;;;22.00;55.80;;;;;;5016751;28;19925;-69
2022/07/30 04:45:52;;;;;;;;;;;22.00;55.90;;;;;;5016142;28;19925;-70
2022/07/30 04:48:18;;;;;;;;;;;21.90;55.80;;;;;;5033616;28;19933;-71
2022/07/30 04:50:46;;;;;;;;;;;21.90;55.80;;;;;;5009360;28;19925;-69
2022/07/30 04:53:15;;;;;;;;;;;21.90;55.80;;;;;;5030640;28;20019;-69
2022/07/30 04:55:44;;;;;;;;;;;21.90;55.80;;;;;;5034197;28;20463;-69
2022/07/30 04:58:12;;;;;;;;;;;21.90;55.90;;;;;;5019718;28;19933;-72
2022/07/30 05:00:38;;;;;;;;;;;21.80;55.80;;;;;;5017499;28;20315;-69
2022/07/30 05:03:07;;;;;;;;;;;21.80;55.70;;;;;;5026760;28;20420;-71
2022/07/30 05:05:35;;;;;;;;;;;21.80;55.70;;;;;;5029716;28;19932;-69
2022/07/30 05:08:02;;;;;;;;;;;21.80;55.60;;;;;;5027118;28;19937;-70
2022/07/30 05:10:30;;;;;;;;;;;21.80;55.70;;;;;;5035396;28;20728;-69
2022/07/30 05:12:57;;;;;;;;;;;21.80;55.70;;;;;;5031311;28;20337;-70
2022/07/30 05:15:23;;;;;;;;;;;21.70;55.80;;;;;;5037216;28;20549;-69
2022/07/30 05:17:51;;;;;;;;;;;21.70;55.80;;;;;;5028719;28;19932;-70
2022/07/30 05:20:17;;;;;;;;;;;21.70;55.90;;;;;;5014081;28;19925;-69
2022/07/30 05:22:44;;;;;;;;;;;21.70;56.10;;;;;;5026503;28;19925;-69
2022/07/30 05:25:10;;;;;;;;;;;21.70;56.10;;;;;;5030431;28;19926;-71
2022/07/30 05:27:38;;;;;;;;;;;21.70;56.00;;;;;;5038804;28;19935;-70
2022/07/30 05:30:06;;;;;;;;;;;21.70;56.00;;;;;;5033603;28;19926;-70
2022/07/30 05:32:32;;;;;;;;;;;21.70;56.00;;;;;;5019590;28;19929;-69
2022/07/30 05:34:59;;;;;;;;;;;21.60;55.90;;;;;;5023702;28;19929;-70
2022/07/30 05:37:26;;;;;;;;;;;21.60;56.00;;;;;;5036913;28;20382;-69
2022/07/30 05:39:53;;;;;;;;;;;21.60;55.90;;;;;;5036156;28;20479;-70
2022/07/30 05:42:19;;;;;;;;;;;21.60;55.90;;;;;;5017361;28;20341;-69
2022/07/30 05:44:47;;;;;;;;;;;21.60;55.90;;;;;;5016707;28;19933;-70
2022/07/30 05:47:13;;;;;;;;;;;21.60;56.00;;;;;;5026215;28;20340;-69
2022/07/30 05:49:40;;;;;;;;;;;21.60;56.10;;;;;;5018163;28;19926;-70
2022/07/30 05:52:07;;;;;;;;;;;21.60;56.00;;;;;;5016709;28;19932;-68
2022/07/30 05:54:33;;;;;;;;;;;21.60;55.90;;;;;;5026388;28;19929;-69
2022/07/30 05:57:00;;;;;;;;;;;21.60;55.90;;;;;;5035031;28;19936;-69
2022/07/30 05:59:27;;;;;;;;;;;21.60;56.00;;;;;;5016235;28;19926;-70
2022/07/30 06:01:54;;;;;;;;;;;21.60;56.00;;;;;;5020524;28;19930;-72
2022/07/30 06:04:21;;;;;;;;;;;21.60;55.90;;;;;;5028230;28;19925;-70
2022/07/30 06:06:48;;;;;;;;;;;21.60;55.90;;;;;;5025518;28;19925;-70
2022/07/30 06:09:14;;;;;;;;;;;21.60;55.90;;;;;;5030594;28;20346;-69
2022/07/30 06:11:41;;;;;;;;;;;21.60;55.90;;;;;;5035092;28;19933;-70
2022/07/30 06:14:08;;;;;;;;;;;21.60;55.90;;;;;;5030158;28;19948;-70
2022/07/30 06:16:34;;;;;;;;;;;21.60;55.90;;;;;;5021843;28;20308;-69
2022/07/30 06:19:02;;;;;;;;;;;21.60;55.90;;;;;;5017508;28;19929;-70
2022/07/30 06:21:28;;;;;;;;;;;21.60;55.90;;;;;;5033751;28;19971;-70
2022/07/30 06:23:55;;;;;;;;;;;21.60;56.00;;;;;;5023157;28;19925;-70
2022/07/30 06:26:22;;;;;;;;;;;21.60;55.90;;;;;;5034275;28;20431;-72
2022/07/30 06:28:48;;;;;;;;;;;21.60;56.00;;;;;;5038993;28;19925;-70
2022/07/30 06:31:15;;;;;;;;;;;21.60;55.90;;;;;;5022133;28;19956;-70
2022/07/30 06:33:41;;;;;;;;;;;21.70;56.00;;;;;;5015578;28;19943;-69
2022/07/30 06:36:09;;;;;;;;;;;21.70;55.90;;;;;;5028440;28;19952;-69
2022/07/30 06:38:36;;;;;;;;;;;21.70;55.90;;;;;;5027941;28;19924;-69
2022/07/30 06:41:02;;;;;;;;;;;21.70;55.90;;;;;;5022667;28;19929;-70
2022/07/30 06:43:29;;;;;;;;;;;21.70;56.00;;;;;;5021344;28;19943;-71
2022/07/30 06:45:55;;;;;;;;;;;21.70;56.00;;;;;;5018734;28;19933;-70
2022/07/30 06:48:23;;;;;;;;;;;21.70;56.00;;;;;;5033211;28;19929;-71
2022/07/30 06:50:50;;;;;;;;;;;21.70;56.10;;;;;;5012827;28;19952;-71
2022/07/30 06:53:17;;;;;;;;;;;21.70;56.10;;;;;;5025254;28;19925;-69
2022/07/30 06:55:44;;;;;;;;;;;21.80;55.90;;;;;;5030674;28;20313;-69
2022/07/30 06:58:10;;;;;;;;;;;21.80;55.90;;;;;;5015895;28;19933;-71
2022/07/30 07:00:37;;;;;;;;;;;21.80;55.90;;;;;;5021424;28;19925;-70
2022/07/30 07:03:04;;;;;;;;;;;21.80;55.90;;;;;;5042919;28;19932;-70
2022/07/30 07:05:30;;;;;;;;;;;21.80;55.90;;;;;;5019058;28;19943;-69
2022/07/30 07:07:57;;;;;;;;;;;21.80;55.90;;;;;;5020067;28;19969;-70
2022/07/30 07:10:25;;;;;;;;;;;21.90;55.90;;;;;;5026742;28;19929;-70
2022/07/30 07:12:51;;;;;;;;;;;21.90;55.90;;;;;;5041445;28;19925;-70
2022/07/30 07:15:18;;;;;;;;;;;21.90;55.90;;;;;;5022415;28;20329;-69
2022/07/30 07:17:44;;;;;;;;;;;21.90;55.80;;;;;;5021232;28;19925;-69
2022/07/30 07:20:11;;;;;;;;;;;22.00;55.80;;;;;;5028091;28;19933;-70
2022/07/30 07:22:38;;;;;;;;;;;21.90;55.80;;;;;;5033210;28;19933;-71
2022/07/30 07:25:05;;;;;;;;;;;22.00;55.70;;;;;;5040485;28;19926;-69
2022/07/30 07:27:33;;;;;;;;;;;22.00;55.70;;;;;;5031276;28;19973;-69
2022/07/30 07:29:59;;;;;;;;;;;22.00;55.70;;;;;;5019759;28;19933;-69
2022/07/30 07:32:26;;;;;;;;;;;22.10;55.60;;;;;;5033065;28;19924;-71
2022/07/30 07:34:52;;;;;;;;;;;22.10;55.60;;;;;;5033737;28;20424;-72
2022/07/30 07:37:19;;;;;;;;;;;22.10;55.50;;;;;;5030249;28;20401;-70
2022/07/30 07:39:45;;;;;;;;;;;22.10;55.50;;;;;;5024487;28;19930;-69
2022/07/30 07:42:12;;;;;;;;;;;22.20;55.50;;;;;;5032484;28;20228;-69
2022/07/30 07:44:40;;;;;;;;;;;22.20;55.50;;;;;;5022396;28;19933;-71
2022/07/30 07:47:06;;;;;;;;;;;22.20;55.40;;;;;;5024278;28;19925;-69
2022/07/30 07:49:33;;;;;;;;;;;22.20;55.40;;;;;;5037670;28;19925;-70
2022/07/30 07:51:59;;;;;;;;;;;22.20;55.30;;;;;;5028275;28;19929;-70
2022/07/30 07:54:26;;;;;;;;;;;22.30;55.30;;;;;;5031558;28;20273;-70
2022/07/30 07:56:54;;;;;;;;;;;22.30;55.20;;;;;;5028481;28;20340;-71
2022/07/30 07:59:21;;;;;;;;;;;22.30;55.20;;;;;;5016979;28;19925;-70
2022/07/30 08:01:49;;;;;;;;;;;22.30;55.20;;;;;;5020052;28;19941;-71
2022/07/30 08:04:16;;;;;;;;;;;22.30;55.20;;;;;;5036210;28;19924;-70
2022/07/30 08:06:42;;;;;;;;;;;22.40;55.10;;;;;;5022448;28;19936;-71
2022/07/30 08:09:09;;;;;;;;;;;22.40;55.10;;;;;;5030952;28;19932;-71
2022/07/30 08:11:36;;;;;;;;;;;22.40;55.10;;;;;;5034980;28;19943;-70
2022/07/30 08:14:02;;;;;;;;;;;22.40;55.00;;;;;;5031630;28;20516;-70
2022/07/30 08:16:29;;;;;;;;;;;22.40;55.00;;;;;;5023044;28;19933;-71
2022/07/30 08:18:57;;;;;;;;;;;22.50;54.90;;;;;;5025309;28;20327;-69
2022/07/30 08:21:23;;;;;;;;;;;22.50;54.80;;;;;;5035396;28;19925;-69
2022/07/30 08:23:50;;;;;;;;;;;22.60;54.80;;;;;;5041367;28;20297;-70
2022/07/30 08:26:16;;;;;;;;;;;22.60;54.70;;;;;;5038036;28;20293;-70
2022/07/30 08:28:44;;;;;;;;;;;22.60;54.70;;;;;;5015634;28;19936;-69
2022/07/30 08:31:10;;;;;;;;;;;22.60;54.50;;;;;;5019920;28;19961;-72
2022/07/30 08:33:37;;;;;;;;;;;22.70;54.50;;;;;;5036366;28;19928;-70
2022/07/30 08:36:05;;;;;;;;;;;22.70;54.50;;;;;;5034885;28;19988;-70
2022/07/30 08:38:32;;;;;;;;;;;22.70;54.40;;;;;;5040303;28;19932;-70
2022/07/30 08:40:58;;;;;;;;;;;22.80;54.40;;;;;;5025157;28;19929;-71
2022/07/30 08:43:25;;;;;;;;;;;22.80;54.30;;;;;;5021588;28;19944;-69
2022/07/30 08:45:52;;;;;;;;;;;22.80;54.20;;;;;;5020781;28;19959;-72
2022/07/30 08:48:20;;;;;;;;;;;22.90;54.10;;;;;;5019504;28;19925;-71
2022/07/30 08:50:47;;;;;;;;;;;22.90;54.10;;;;;;5028109;28;19925;-71
2022/07/30 08:53:15;;;;;;;;;;;23.00;54.20;;;;;;5026029;28;19976;-70
2022/07/30 08:55:42;;;;;;;;;;;23.00;54.00;;;;;;5031519;28;20298;-70
2022/07/30 08:58:15;;;;;;;;;;;23.00;53.80;;;;;;5018806;28;19936;-69
2022/07/30 09:00:41;;;;;;;;;;;23.10;53.50;;;;;;5016799;28;19932;-69
2022/07/30 09:03:08;;;;;;;;;;;23.20;53.40;;;;;;5045016;28;19928;-70
2022/07/30 09:05:34;;;;;;;;;;;23.20;53.20;;;;;;5021410;28;19929;-70
2022/07/30 09:08:01;;;;;;;;;;;23.20;53.00;;;;;;5022990;28;19936;-70
2022/07/30 09:10:29;;;;;;;;;;;23.30;52.90;;;;;;5027931;28;19933;-68
2022/07/30 09:12:55;;;;;;;;;;;23.30;52.80;;;;;;5036213;28;19925;-68
2022/07/30 09:15:24;;;;;;;;;;;23.40;52.90;;;;;;5018854;28;20373;-70
2022/07/30 09:17:52;;;;;;;;;;;23.40;52.90;;;;;;5013859;28;19925;-71
2022/07/30 09:20:19;;;;;;;;;;;23.50;52.60;;;;;;5024637;28;19931;-70
2022/07/30 09:22:47;;;;;;;;;;;23.50;52.30;;;;;;5033632;28;20448;-70
2022/07/30 09:25:14;;;;;;;;;;;23.50;51.90;;;;;;5034422;28;19944;-70
2022/07/30 09:27:45;;;;;;;;;;;23.60;51.10;;;;;;5026305;28;20554;-70
2022/07/30 09:30:12;;;;;;;;;;;23.60;50.60;;;;;;5017634;28;19925;-71
2022/07/30 09:32:47;;;;;;;;;;;23.70;50.20;;;;;;5020215;28;19930;-70
2022/07/30 09:35:14;;;;;;;;;;;23.70;49.60;;;;;;5034756;28;20010;-69
2022/07/30 09:37:41;;;;;;;;;;;23.70;49.70;;;;;;5028480;28;19930;-71
2022/07/30 09:40:11;;;;;;;;;;;23.80;49.50;;;;;;5041425;28;19986;-70
2022/07/30 09:42:38;;;;;;;;;;;23.80;50.10;;;;;;5017039;28;19926;-70
2022/07/30 09:45:06;;;;;;;;;;;23.90;50.60;;;;;;5017816;28;19933;-70
2022/07/30 09:47:34;;;;;;;;;;;24.00;50.20;;;;;;5020980;28;19925;-71
2022/07/30 09:50:05;;;;;;;;;;;24.00;49.90;;;;;;5033707;28;20300;-70
2022/07/30 09:52:31;;;;;;;;;;;24.10;49.50;;;;;;5016972;28;20289;-70
2022/07/30 09:54:58;;;;;;;;;;;24.10;49.00;;;;;;5035583;28;19924;-70
2022/07/30 09:57:25;;;;;;;;;;;24.20;49.30;;;;;;5019996;28;19925;-69
2022/07/30 09:59:51;;;;;;;;;;;24.30;50.10;;;;;;5024580;28;19925;-70
2022/07/30 10:02:18;;;;;;;;;;;24.30;49.90;;;;;;5016158;28;19925;-70
2022/07/30 10:04:46;;;;;;;;;;;24.40;49.60;;;;;;5022461;28;19981;-71
2022/07/30 10:07:20;;;;;;;;;;;24.50;48.70;;;;;;5026614;28;19929;-70
2022/07/30 10:09:47;;;;;;;;;;;24.50;48.00;;;;;;5030719;28;19925;-71
2022/07/30 10:12:14;;;;;;;;;;;24.60;47.60;;;;;;5036108;28;19925;-71
2022/07/30 10:14:43;;;;;;;;;;;24.70;47.60;;;;;;5029168;28;19929;-72
2022/07/30 10:17:10;;;;;;;;;;;24.70;47.20;;;;;;5015284;28;19928;-70
2022/07/30 10:19:37;;;;;;;;;;;24.80;47.50;;;;;;5032033;28;19925;-70
2022/07/30 10:22:05;;;;;;;;;;;24.90;47.70;;;;;;5033157;28;19929;-71
2022/07/30 10:24:35;;;;;;;;;;;24.90;47.20;;;;;;5042860;28;19924;-70
2022/07/30 10:27:01;;;;;;;;;;;25.00;47.70;;;;;;5034683;28;19975;-70
2022/07/30 10:29:28;;;;;;;;;;;25.10;48.00;;;;;;5014114;28;19926;-71
2022/07/30 10:31:54;;;;;;;;;;;25.10;47.40;;;;;;5018934;28;19929;-70
2022/07/30 10:34:21;;;;;;;;;;;25.20;46.90;;;;;;5039409;28;19924;-72
2022/07/30 10:36:49;;;;;;;;;;;25.30;47.50;;;;;;5044132;28;20011;-70
2022/07/30 10:39:19;;;;;;;;;;;25.30;47.80;;;;;;5035107;28;19925;-71
2022/07/30 10:41:47;;;;;;;;;;;25.40;47.50;;;;;;5030340;28;19929;-70
2022/07/30 10:44:31;;;;;;;;;;;25.50;46.50;;;;;;5020456;28;19968;-70
2022/07/30 10:47:01;;;;;;;;;;;25.60;46.00;;;;;;5019647;28;19933;-69
2022/07/30 10:49:28;;;;;;;;;;;25.60;46.20;;;;;;5037581;28;19929;-72
2022/07/30 10:51:55;;;;;;;;;;;25.70;46.40;;;;;;5032310;28;19925;-71
2022/07/30 10:54:37;;;;;;;;;;;25.70;46.40;;;;;;5032192;28;19924;-71
2022/07/30 10:57:03;;;;;;;;;;;25.80;46.60;;;;;;5026584;28;19929;-70
2022/07/30 10:59:30;;;;;;;;;;;25.80;46.30;;;;;;5019923;28;19929;-71
2022/07/30 11:02:09;;;;;;;;;;;25.90;46.00;;;;;;5021761;28;20004;-70
2022/07/30 11:04:36;;;;;;;;;;;25.90;46.00;;;;;;5027560;28;19924;-69
2022/07/30 11:07:17;;;;;;;;;;;25.90;45.90;;;;;;5027796;28;19921;-71
2022/07/30 11:09:45;;;;;;;;;;;25.90;46.20;;;;;;5034920;28;19928;-70
2022/07/30 11:12:12;;;;;;;;;;;26.00;46.00;;;;;;5036610;28;19925;-71
2022/07/30 11:14:58;;;;;;;;;;;26.00;45.50;;;;;;5032582;28;19925;-70
2022/07/30 11:17:25;;;;;;;;;;;26.10;45.60;;;;;;5025649;28;19921;-70
2022/07/30 11:20:06;;;;;;;;;;;26.10;46.60;;;;;;5030527;28;20270;-69
2022/07/30 11:22:37;;;;;;;;;;;26.20;46.20;;;;;;5031227;28;19986;-72
2022/07/30 11:25:05;;;;;;;;;;;26.20;46.20;;;;;;5040686;28;19925;-70
2022/07/30 11:27:39;;;;;;;;;;;26.20;45.60;;;;;;5029798;28;19925;-71
2022/07/30 11:30:26;;;;;;;;;;;26.30;45.90;;;;;;5023829;28;19921;-69
2022/07/30 11:32:55;;;;;;;;;;;26.30;46.70;;;;;;5028602;28;20349;-70
2022/07/30 11:35:23;;;;;;;;;;;26.30;46.30;;;;;;5032183;28;19926;-70
2022/07/30 11:38:03;;;;;;;;;;;26.30;45.50;;;;;;5018499;28;19933;-71
2022/07/30 11:40:30;;;;;;;;;;;26.40;45.20;;;;;;5028924;28;19929;-69
2022/07/30 11:43:15;;;;;;;;;;;26.40;45.90;;;;;;5021789;28;19934;-70
2022/07/30 11:45:42;;;;;;;;;;;26.40;46.40;;;;;;5024586;28;19983;-70
2022/07/30 11:48:11;;;;;;;;;;;26.40;46.10;;;;;;5031933;28;19929;-71
2022/07/30 11:50:38;;;;;;;;;;;26.50;45.70;;;;;;5027671;28;19925;-70
2022/07/30 11:53:05;;;;;;;;;;;26.50;45.40;;;;;;5023353;28;19929;-71
2022/07/30 11:55:32;;;;;;;;;;;26.50;45.50;;;;;;5035822;28;19929;-70
2022/07/30 11:58:00;;;;;;;;;;;26.50;45.00;;;;;;5018639;28;19929;-70
2022/07/30 12:00:34;;;;;;;;;;;26.60;46.00;;;;;;5018389;28;19932;-70
2022/07/30 12:03:00;;;;;;;;;;;26.60;45.30;;;;;;5034841;28;19975;-70
2022/07/30 12:05:28;;;;;;;;;;;26.60;44.40;;;;;;5025686;28;19932;-70
2022/07/30 12:07:58;;;;;;;;;;;26.70;44.10;;;;;;5026754;28;19932;-69
2022/07/30 12:10:25;;;;;;;;;;;26.70;44.20;;;;;;5034234;28;19932;-69
2022/07/30 12:12:51;;;;;;;;;;;26.70;44.70;;;;;;5043350;28;19932;-70
2022/07/30 12:15:28;;;;;;;;;;;26.80;44.30;;;;;;5028301;28;19926;-70
2022/07/30 12:17:55;;;;;;;;;;;26.80;44.70;;;;;;5015407;28;19933;-69
2022/07/30 12:20:21;;;;;;;;;;;26.90;44.60;;;;;;5029872;28;19944;-70
2022/07/30 12:22:49;;;;;;;;;;;26.90;44.30;;;;;;5035531;28;19936;-72
2022/07/30 12:25:16;;;;;;;;;;;26.90;44.50;;;;;;5041720;28;19925;-70
2022/07/30 12:27:45;;;;;;;;;;;27.00;43.70;;;;;;5026888;28;20356;-69
2022/07/30 12:30:13;;;;;;;;;;;27.00;43.20;;;;;;5020775;28;20044;-72
2022/07/30 12:32:39;;;;;;;;;;;27.00;43.00;;;;;;5019117;28;19929;-71
2022/07/30 12:35:06;;;;;;;;;;;27.10;43.50;;;;;;5039589;28;19929;-70
2022/07/30 12:37:33;;;;;;;;;;;27.10;43.60;;;;;;5028438;28;19928;-71
2022/07/30 12:40:08;;;;;;;;;;;27.10;43.70;;;;;;5034153;28;19925;-70
2022/07/30 12:42:35;;;;;;;;;;;27.20;43.90;;;;;;5020499;28;19932;-72
2022/07/30 12:45:01;;;;;;;;;;;27.20;44.20;;;;;;5018779;28;19929;-71
2022/07/30 12:47:30;;;;;;;;;;;27.30;44.30;;;;;;5023482;28;19925;-72
2022/07/30 12:49:58;;;;;;;;;;;27.30;44.00;;;;;;5042016;28;19955;-70
2022/07/30 12:52:25;;;;;;;;;;;27.40;43.60;;;;;;5021090;28;20421;-70
2022/07/30 12:55:07;;;;;;;;;;;27.40;43.50;;;;;;5037853;28;19967;-72
2022/07/30 12:57:54;;;;;;;;;;;27.50;43.10;;;;;;5019749;28;20081;-70
2022/07/30 13:00:21;;;;;;;;;;;27.50;43.80;;;;;;5017107;28;19929;-71
2022/07/30 13:02:48;;;;;;;;;;;27.50;42.00;;;;;;5024973;28;19925;-70
2022/07/30 13:05:14;;;;;;;;;;;27.60;41.90;;;;;;5029248;28;19928;-72
2022/07/30 13:07:54;;;;;;;;;;;27.70;41.60;;;;;;5022860;28;20499;-72
2022/07/30 13:10:21;;;;;;;;;;;27.70;42.70;;;;;;5037013;28;19931;-72
2022/07/30 13:12:47;;;;;;;;;;;27.80;42.50;;;;;;5041244;28;19928;-70
2022/07/30 13:15:18;;;;;;;;;;;27.90;41.80;;;;;;5022206;28;19929;-70
2022/07/30 13:17:45;;;;;;;;;;;28.00;41.70;;;;;;5020278;28;19932;-70
2022/07/30 13:20:12;;;;;;;;;;;28.00;41.40;;;;;;5028806;28;19933;-72
2022/07/30 13:22:39;;;;;;;;;;;28.10;40.70;;;;;;5040002;28;19924;-71
2022/07/30 13:25:06;;;;;;;;;;;28.10;40.40;;;;;;5041134;28;19967;-72
2022/07/30 13:27:33;;;;;;;;;;;28.10;40.40;;;;;;5020438;28;19932;-69
2022/07/30 13:30:00;;;;;;;;;;;28.20;40.20;;;;;;5018108;28;19929;-71
2022/07/30 13:32:27;;;;;;;;;;;28.20;39.80;;;;;;5028332;28;19924;-70
2022/07/30 13:34:54;;;;;;;;;;;28.30;39.90;;;;;;5034217;28;19936;-71
2022/07/30 13:37:21;;;;;;;;;;;28.30;39.40;;;;;;5038872;28;19925;-72
2022/07/30 13:39:47;;;;;;;;;;;28.30;39.30;;;;;;5025263;28;19933;-71
2022/07/30 13:42:14;;;;;;;;;;;28.40;40.70;;;;;;5023932;28;19933;-70
2022/07/30 13:44:40;;;;;;;;;;;28.50;39.40;;;;;;5016816;28;19929;-70
2022/07/30 13:47:07;;;;;;;;;;;28.50;39.40;;;;;;5033710;28;19925;-70
2022/07/30 13:49:37;;;;;;;;;;;28.60;38.90;;;;;;5019702;28;19956;-73
2022/07/30 13:52:04;;;;;;;;;;;28.70;40.00;;;;;;5017445;28;19925;-71
2022/07/30 13:54:31;;;;;;;;;;;28.80;38.70;;;;;;5030261;28;19932;-70
2022/07/30 13:56:57;;;;;;;;;;;28.80;38.80;;;;;;5024977;28;19925;-70
2022/07/30 13:59:24;;;;;;;;;;;28.90;38.80;;;;;;5016734;28;19936;-73
2022/07/30 14:01:51;;;;;;;;;;;29.00;38.80;;;;;;5018084;28;19929;-70
2022/07/30 14:04:17;;;;;;;;;;;29.00;38.80;;;;;;5035128;28;19924;-69
2022/07/30 14:06:45;;;;;;;;;;;29.00;38.00;;;;;;5026281;28;19929;-71
2022/07/30 14:09:12;;;;;;;;;;;29.10;38.80;;;;;;5025941;28;20317;-70
2022/07/30 14:11:38;;;;;;;;;;;29.10;38.90;;;;;;5039377;28;19936;-70
2022/07/30 14:14:05;;;;;;;;;;;29.10;38.80;;;;;;5034657;28;19930;-70
2022/07/30 14:16:31;;;;;;;;;;;29.20;38.60;;;;;;5027818;28;19936;-69
2022/07/30 14:18:58;;;;;;;;;;;29.20;38.30;;;;;;5022711;28;19932;-70
2022/07/30 14:21:24;;;;;;;;;;;29.20;38.40;;;;;;5041822;28;20349;-70